Time;durP1;ratioP1;P1;durP2;ratioP2;P2;SDS_P1;SDS_P2;PMS_P1;PMS_P2;Temp;Humidity;BMP_temperature;BMP_pressure;BME280_temperature;BME280_humidity;BME280_pressure;Samples;Min_cycle;Max_cycle;Signal;HPM_P1;HPM_P2
2023/09/04 00:01:47;;;;;;;3.90;2.80;;;;;;;-145.68;100.00;75083.16;10448322;28;20223;-71
2023/09/04 00:06:47;;;;;;;4.97;3.37;;;;;;;-145.68;100.00;75087.16;10448421;28;20195;-71
2023/09/04 00:11:47;;;;;;;5.23;3.23;;;;;;;-145.68;100.00;75095.16;10451625;28;20261;-71
2023/09/04 00:16:48;;;;;;;4.90;3.23;;;;;;;-145.68;100.00;75099.16;10456866;28;20187;-71
2023/09/04 00:21:48;;;;;;;3.20;2.90;;;;;;;-145.68;100.00;75095.16;10456265;28;20212;-71
2023/09/04 00:26:49;;;;;;;7.13;3.70;;;;;;;-145.68;100.00;75109.16;10456597;28;20674;-71
2023/09/04 00:31:50;;;;;;;4.70;2.93;;;;;;;-145.68;100.00;75119.16;10456446;28;20213;-71
2023/09/04 00:36:50;;;;;;;3.60;2.83;;;;;;;-145.68;100.00;75123.16;10437987;28;20188;-71
2023/09/04 00:41:51;;;;;;;5.83;3.10;;;;;;;-145.68;100.00;75143.13;10456079;28;20219;-71
2023/09/04 00:46:51;;;;;;;4.13;3.00;;;;;;;-145.68;100.00;75133.16;10437892;28;20650;-70
2023/09/04 00:51:52;;;;;;;3.97;3.00;;;;;;;-145.68;100.00;75135.16;10437657;28;20234;-70
2023/09/04 00:56:52;;;;;;;6.40;3.27;;;;;;;-145.68;100.00;75133.16;10455292;28;20188;-71
2023/09/04 01:01:54;;;;;;;4.73;3.10;;;;;;;-145.68;100.00;75149.13;10454883;28;20231;-71
2023/09/04 01:06:55;;;;;;;4.90;3.37;;;;;;;-145.68;100.00;75149.13;10455693;28;20187;-70
2023/09/04 01:12:17;;;;;;;3.90;3.10;;;;;;;-145.68;100.00;75151.13;10454454;28;20208;-71
2023/09/04 01:17:17;;;;;;;3.67;3.27;;;;;;;-145.68;100.00;75155.13;10436955;28;21537;-70
2023/09/04 01:22:18;;;;;;;3.27;2.90;;;;;;;-145.68;100.00;75159.13;10436274;28;20238;-71
2023/09/04 01:27:25;;;;;;;6.03;3.10;;;;;;;-145.68;100.00;75167.13;10453812;28;20184;-71
2023/09/04 01:32:36;;;;;;;4.13;2.97;;;;;;;-145.68;100.00;75161.13;10419528;28;20211;-71
2023/09/04 01:37:38;;;;;;;6.07;2.87;;;;;;;-145.68;100.00;75171.13;10453709;28;20191;-71
2023/09/04 01:42:39;;;;;;;4.47;3.57;;;;;;;-145.68;100.00;75175.13;10435643;28;20231;-71
2023/09/04 01:47:39;;;;;;;4.47;3.07;;;;;;;-145.68;100.00;75183.13;10435686;28;20275;-71
2023/09/04 01:52:40;;;;;;;3.93;3.07;;;;;;;-145.68;100.00;75183.13;10435238;28;20227;-71
2023/09/04 01:57:40;;;;;;;3.83;3.30;;;;;;;-145.68;100.00;75199.13;10453813;28;20279;-71
2023/09/04 02:02:41;;;;;;;4.07;3.47;;;;;;;-145.68;100.00;75199.13;10453609;28;20204;-71
2023/09/04 02:07:41;;;;;;;7.13;3.17;;;;;;;-145.68;100.00;75197.13;10435265;28;20192;-71
2023/09/04 02:12:42;;;;;;;4.03;2.70;;;;;;;-145.68;100.00;75191.13;10434742;28;20216;-71
2023/09/04 02:17:43;;;;;;;4.37;3.33;;;;;;;-145.68;100.00;75205.13;10435182;28;20180;-71
2023/09/04 02:22:44;;;;;;;4.77;3.50;;;;;;;-145.68;100.00;75199.13;10453278;28;20212;-71
2023/09/04 02:27:44;;;;;;;4.53;2.93;;;;;;;-145.68;100.00;75209.13;10453031;28;20259;-71
2023/09/04 02:32:45;;;;;;;5.80;3.17;;;;;;;-145.68;100.00;75215.13;10452244;28;20211;-71
2023/09/04 02:37:46;;;;;;;3.27;2.70;;;;;;;-145.68;100.00;75191.13;10452634;28;20202;-71
2023/09/04 02:42:46;;;;;;;5.50;3.17;;;;;;;-145.68;100.00;75207.13;10434397;28;20552;-70
2023/09/04 02:47:46;;;;;;;4.23;2.87;;;;;;;-145.68;100.00;75203.13;10433893;28;20463;-70
2023/09/04 02:52:47;;;;;;;4.53;3.40;;;;;;;-145.68;100.00;75215.13;10467851;22;20244;-69
2023/09/04 02:57:48;;;;;;;3.00;2.70;;;;;;;-145.68;100.00;75219.13;10449938;28;20200;-68
2023/09/04 03:02:50;;;;;;;6.77;3.53;;;;;;;-145.68;100.00;75227.13;10435355;28;20586;-69
2023/09/04 03:07:50;;;;;;;4.10;3.30;;;;;;;-145.68;100.00;75223.13;10491587;28;20187;-69
2023/09/04 03:12:52;;;;;;;6.33;3.30;;;;;;;-145.68;100.00;75221.13;10473434;28;20711;-69
2023/09/04 03:17:53;;;;;;;5.07;3.13;;;;;;;-145.68;100.00;75229.13;10473779;28;20187;-69
2023/09/04 03:22:53;;;;;;;6.07;3.07;;;;;;;-145.68;100.00;75227.13;10473317;28;20789;-69
2023/09/04 03:27:54;;;;;;;4.93;2.97;;;;;;;-145.68;100.00;75231.13;10491347;28;20235;-68
2023/09/04 03:32:56;;;;;;;5.37;3.60;;;;;;;-145.68;100.00;75231.13;10469243;28;20743;-68
2023/09/04 03:37:57;;;;;;;5.43;3.30;;;;;;;-145.68;100.00;75229.13;10452191;28;20187;-69
2023/09/04 03:42:58;;;;;;;7.00;3.50;;;;;;;-145.68;100.00;75235.13;10469433;28;20195;-68
2023/09/04 03:47:59;;;;;;;8.43;3.20;;;;;;;-145.68;100.00;75247.13;10472350;28;20325;-68
2023/09/04 03:52:59;;;;;;;5.03;3.03;;;;;;;-145.68;100.00;75237.13;10461177;28;20227;-68
2023/09/04 03:57:59;;;;;;;3.67;2.87;;;;;;;-145.68;100.00;75237.13;10432135;28;20199;-68
2023/09/04 04:03:00;;;;;;;6.07;2.90;;;;;;;-145.68;100.00;75247.13;10468822;28;20209;-68
2023/09/04 04:08:02;;;;;;;5.53;3.57;;;;;;;-145.68;100.00;75265.13;10441830;28;20277;-68
2023/09/04 04:13:03;;;;;;;4.03;3.63;;;;;;;-145.68;100.00;75259.13;10490012;28;20344;-69
2023/09/04 04:18:04;;;;;;;4.03;3.23;;;;;;;-145.68;100.00;75265.13;10472616;28;20672;-69
2023/09/04 04:23:04;;;;;;;5.00;3.20;;;;;;;-145.68;100.00;75271.13;10471980;28;20206;-68
2023/09/04 04:28:04;;;;;;;6.93;3.20;;;;;;;-145.68;100.00;75281.13;10490324;28;20196;-68
2023/09/04 04:33:05;;;;;;;3.77;2.87;;;;;;;-145.68;100.00;75277.13;10471721;28;20223;-68
2023/09/04 04:38:08;;;;;;;4.20;3.47;;;;;;;-145.68;100.00;75311.13;10471634;28;20193;-68
2023/09/04 04:43:09;;;;;;;5.10;4.10;;;;;;;-145.68;100.00;75313.13;10472023;28;20203;-68
2023/09/04 04:48:09;;;;;;;3.13;2.87;;;;;;;-145.68;100.00;75299.13;10471570;28;20573;-68
2023/09/04 04:53:10;;;;;;;4.17;3.23;;;;;;;-145.68;100.00;75309.13;10471478;28;20756;-68
2023/09/04 04:58:11;;;;;;;4.97;2.87;;;;;;;-145.68;100.00;75305.13;10475303;28;20191;-68
2023/09/04 05:03:12;;;;;;;7.27;3.27;;;;;;;-145.68;100.00;75311.13;10478882;28;20276;-68
2023/09/04 05:08:12;;;;;;;3.40;3.10;;;;;;;-145.68;100.00;75303.13;10478975;28;20195;-68
2023/09/04 05:13:13;;;;;;;3.93;3.40;;;;;;;-145.68;100.00;75299.13;10478313;28;20226;-68
2023/09/04 05:18:14;;;;;;;5.03;3.90;;;;;;;-145.68;100.00;75301.13;10478769;28;20273;-68
2023/09/04 05:23:15;;;;;;;5.40;3.83;;;;;;;-145.68;100.00;75285.13;10495922;28;20217;-68
2023/09/04 05:28:15;;;;;;;4.33;3.93;;;;;;;-145.68;100.00;75255.13;10496141;28;20581;-67
2023/09/04 05:33:15;;;;;;;4.70;3.50;;;;;;;-145.68;100.00;75189.13;10495734;28;20231;-68
2023/09/04 05:38:16;;;;;;;5.17;3.00;;;;;;;-145.68;100.00;75101.16;10495387;28;20294;-68
2023/09/04 05:43:16;;;;;;;3.10;2.80;;;;;;;-145.68;100.00;75009.16;10495422;28;20203;-69
2023/09/04 05:48:16;;;;;;;3.50;3.00;;;;;;;-145.68;100.00;74943.19;10495212;28;20187;-69
2023/09/04 05:53:19;;;;;;;9.30;3.42;;;;;;;-145.68;100.00;74907.19;10494098;28;20603;-69
2023/09/04 05:58:19;;;;;;;3.00;2.70;;;;;;;-145.68;100.00;74887.19;10477514;28;20172;-70
2023/09/04 06:03:19;;;;;;;3.10;2.35;;;;;;;-145.68;100.00;74827.22;10490158;28;20203;-69
2023/09/04 06:08:20;;;;;;;8.00;2.90;;;;;;;-145.68;100.00;74767.22;10459059;28;20267;-69
2023/09/04 06:13:20;;;;;;;3.80;2.05;;;;;;;-145.68;100.00;74731.25;10489037;28;20241;-69
2023/09/04 06:18:20;;;;;;;2.20;2.00;;;;;;;-145.68;100.00;74691.25;10493985;28;20661;-69
2023/09/04 06:23:21;;;;;;;2.22;1.85;;;;;;;-145.68;100.00;74603.28;10493681;28;20229;-70
2023/09/04 06:28:23;;;;;;;3.22;2.25;;;;;;;-145.68;97.15;74647.28;10493567;28;20192;-69
2023/09/04 06:33:25;;;;;;;3.45;2.30;;;;;;;-145.68;93.74;74537.31;10493270;28;20219;-65
2023/09/04 06:38:25;;;;;;;3.15;2.35;;;;;;;-145.68;89.63;74459.34;10480672;28;20195;-66
2023/09/04 06:43:29;;;;;;;1.77;1.67;;;;;;;-145.68;83.85;74437.34;10492486;28;20709;-69
2023/09/04 06:48:30;;;;;;;2.90;1.90;;;;;;;-145.68;80.12;74299.38;10466005;28;20191;-69
2023/09/04 06:53:30;;;;;;;2.13;1.80;;;;;;;-145.68;73.96;74211.44;10489089;28;20231;-71
2023/09/04 06:58:31;;;;;;;1.40;1.20;;;;;;;-145.68;70.44;74163.44;10491592;28;20198;-71
2023/09/04 07:03:31;;;;;;;3.42;2.38;;;;;;;-145.68;69.80;74171.44;10492101;28;20230;-70
2023/09/04 07:08:32;;;;;;;4.85;2.10;;;;;;;-145.68;67.87;74077.50;10459490;28;20195;-71
2023/09/04 07:13:32;;;;;;;2.67;1.65;;;;;;;-145.68;64.00;74021.50;10453420;28;20604;-71
2023/09/04 07:18:32;;;;;;;2.35;1.80;;;;;;;-145.68;62.30;73999.53;10476649;28;20190;-71
2023/09/04 07:23:33;;;;;;;2.60;1.73;;;;;;;-145.68;56.52;73883.59;10448447;28;20199;-71
2023/09/04 07:28:33;;;;;;;2.85;1.50;;;;;;;-145.68;55.11;73785.63;10466367;28;20195;-72
2023/09/04 07:33:33;;;;;;;3.35;1.50;;;;;;;-145.68;52.76;73727.66;10472323;28;20235;-70
2023/09/04 07:38:34;;;;;;;1.90;1.50;;;;;;;-145.68;50.94;73597.75;10469025;28;20192;-68
2023/09/04 07:43:34;;;;;;;3.92;1.50;;;;;;;-145.68;47.79;73365.88;10463485;28;20196;-69
2023/09/04 07:48:35;;;;;;;2.42;1.70;;;;;;;-145.68;48.18;73539.78;10460342;28;20191;-69
2023/09/04 07:53:35;;;;;;;1.98;1.20;;;;;;;-145.68;46.93;73347.88;10475946;28;20606;-69
2023/09/04 07:58:38;;;;;;;6.63;1.30;;;;;;;-145.68;46.02;73359.88;10483288;28;20194;-69
2023/09/04 08:03:38;;;;;;;2.80;1.00;;;;;;;-145.68;45.71;73271.94;10485767;28;20207;-69
2023/09/04 08:08:39;;;;;;;1.70;1.30;;;;;;;-145.68;45.61;73393.84;10485014;28;20804;-70
2023/09/04 08:13:39;;;;;;;3.60;2.00;;;;;;;-145.68;44.33;73235.97;10447872;28;20591;-69
2023/09/04 08:18:42;;;;;;;2.90;1.77;;;;;;;-145.68;47.37;73439.84;10458707;28;20207;-70
2023/09/04 08:23:43;;;;;;;2.70;2.00;;;;;;;-145.68;45.38;73397.84;10450818;28;20208;-70
2023/09/04 08:28:43;;;;;;;2.88;1.77;;;;;;;-145.68;43.21;73233.97;10447800;28;21402;-70
2023/09/04 08:33:44;;;;;;;4.22;1.75;;;;;;;-145.68;43.20;73259.94;10456349;28;20606;-70
2023/09/04 08:38:45;;;;;;;5.20;2.28;;;;;;;-145.68;41.04;73002.13;10461948;28;20208;-69
2023/09/04 08:43:45;;;;;;;2.80;2.05;;;;;;;-145.68;42.69;73112.03;10467553;28;20243;-71
2023/09/04 08:48:46;;;;;;;4.15;2.00;;;;;;;-145.68;41.89;73056.09;10456391;28;20618;-68
2023/09/04 08:53:49;;;;;;;4.28;1.90;;;;;;;-145.68;44.29;73241.97;10488076;22;20249;-70
2023/09/04 08:58:50;;;;;;;3.92;2.03;;;;;;;-145.68;43.99;73271.94;10492566;28;20192;-69
2023/09/04 09:03:50;;;;;;;3.35;1.92;;;;;;;-145.68;42.58;73144.03;10473646;28;20706;-70
2023/09/04 09:08:52;;;;;;;2.90;1.95;;;;;;;-145.68;42.98;73178.00;10462216;28;20194;-69
2023/09/04 09:13:52;;;;;;;2.13;1.70;;;;;;;-145.68;41.35;72998.13;10462590;28;20211;-70
2023/09/04 09:18:53;;;;;;;3.70;1.90;;;;;;;-145.68;40.46;73058.09;10475230;28;20184;-69
2023/09/04 09:24:19;;;;;;;3.63;1.63;;;;;;;-145.68;39.00;73020.13;10475217;28;20207;-69
2023/09/04 09:29:20;;;;;;;1.77;1.48;;;;;;;-145.68;39.03;72914.19;10478431;28;20195;-69
2023/09/04 09:34:20;;;;;;;3.30;1.85;;;;;;;-145.68;38.95;72936.19;10473605;28;20577;-69
2023/09/04 09:39:21;;;;;;;2.63;1.70;;;;;;;-145.68;38.08;72802.28;10476350;28;20227;-69
2023/09/04 09:44:21;;;;;;;2.28;1.83;;;;;;;-145.68;36.39;72720.34;10478857;28;20489;-69
2023/09/04 09:49:22;;;;;;;2.37;1.60;;;;;;;-145.68;39.40;72944.16;10470905;28;20223;-67
2023/09/04 09:54:35;;;;;;;2.17;1.40;;;;;;;-145.68;36.75;72740.31;10473766;28;20485;-69
2023/09/04 09:59:36;;;;;;;2.50;1.58;;;;;;;-145.68;35.35;72536.50;10484734;28;20725;-69
2023/09/04 10:04:38;;;;;;;3.08;1.38;;;;;;;-145.68;35.83;72612.44;10490432;28;20286;-69
2023/09/04 10:09:44;;;;;;;1.70;1.50;;;;;;;-145.68;35.75;72592.44;10473779;28;20203;-68
2023/09/04 10:14:45;;;;;;;1.83;1.50;;;;;;;-145.68;37.70;72868.22;10490348;28;20401;-68
2023/09/04 10:19:47;;;;;;;2.50;2.03;;;;;;;-145.68;40.99;73094.06;10461134;28;20207;-68
2023/09/04 10:25:09;;;;;;;2.35;1.70;;;;;;;-145.68;38.35;72848.25;10475259;28;20728;-68
2023/09/04 10:30:14;;;;;;;3.28;1.65;;;;;;;-145.68;37.45;72774.31;10447605;28;20215;-68
2023/09/04 10:35:15;;;;;;;1.98;1.60;;;;;;;-145.68;37.76;72784.28;10487640;28;20212;-68
2023/09/04 10:40:16;;;;;;;1.92;1.40;;;;;;;-145.68;36.39;72702.34;10471411;28;20199;-69
2023/09/04 10:45:20;;;;;;;3.58;1.90;;;;;;;-145.68;35.24;72604.44;10439659;28;20214;-69
2023/09/04 10:50:37;;;;;;;2.10;1.80;;;;;;;-145.68;37.51;72688.38;10486873;28;20228;-69
2023/09/04 10:55:37;;;;;;;2.28;1.63;;;;;;;-145.68;37.61;72710.34;10452723;28;20289;-69
2023/09/04 11:00:41;;;;;;;5.40;1.95;;;;;;;-145.68;36.76;72742.31;10429646;28;20269;-69
2023/09/04 11:06:07;;;;;;;2.65;1.90;;;;;;;-145.68;35.02;72670.38;10446312;28;20787;-69
2023/09/04 11:11:08;;;;;;;3.55;1.70;;;;;;;-145.68;36.54;72748.31;10426927;28;20216;-69
2023/09/04 11:16:09;;;;;;;2.58;1.98;;;;;;;-145.68;35.27;72772.31;10431597;28;20188;-68
2023/09/04 11:21:10;;;;;;;2.17;1.98;;;;;;;-145.68;37.86;72894.22;10432810;28;20666;-69
2023/09/04 11:26:11;;;;;;;4.40;1.92;;;;;;;-145.68;35.85;72708.34;10430229;28;20199;-69
2023/09/04 11:31:11;;;;;;;3.92;2.22;;;;;;;-145.68;36.97;72710.34;10430133;28;20230;-69
2023/09/04 11:36:11;;;;;;;5.43;1.58;;;;;;;-145.68;34.63;72554.47;10428481;28;20211;-69
2023/09/04 11:41:19;;;;;;;3.70;2.20;;;;;;;-145.68;35.36;72600.44;10435719;28;20188;-69
2023/09/04 11:46:19;;;;;;;4.00;2.10;;;;;;;-145.68;35.14;72548.47;10445862;28;20876;-69
2023/09/04 11:51:20;;;;;;;3.20;2.22;;;;;;;-145.68;34.67;72520.50;10426691;28;20219;-69
2023/09/04 11:56:21;;;;;;;4.28;2.03;;;;;;;-145.68;37.26;72698.34;10411577;28;20737;-69
2023/09/04 12:01:22;;;;;;;2.08;1.98;;;;;;;-145.68;36.18;72616.44;10439681;28;20625;-69
2023/09/04 12:06:27;;;;;;;4.33;2.17;;;;;;;-145.68;34.55;72434.59;10421821;28;20192;-69
2023/09/04 12:11:28;;;;;;;3.42;2.00;;;;;;;-145.68;35.15;72554.47;10433594;28;20493;-70
2023/09/04 12:16:28;;;;;;;2.38;1.80;;;;;;;-145.68;34.21;72578.47;10446861;28;20194;-70
2023/09/04 12:21:29;;;;;;;4.05;1.88;;;;;;;-145.68;36.77;72714.34;10448118;28;20222;-69
2023/09/04 12:26:29;;;;;;;4.97;1.80;;;;;;;-145.68;35.93;72548.47;10452847;28;20219;-69
2023/09/04 12:31:30;;;;;;;3.25;1.65;;;;;;;-145.68;35.00;72454.56;10426297;28;20227;-69
2023/09/04 12:36:31;;;;;;;3.63;1.70;;;;;;;-145.68;34.39;72358.66;10417470;28;20180;-70
2023/09/04 12:41:32;;;;;;;3.15;1.80;;;;;;;-145.68;34.55;72458.56;10424661;28;20200;-70
2023/09/04 12:46:32;;;;;;;1.88;1.55;;;;;;;-145.68;34.57;72420.59;10396854;28;20208;-69
2023/09/04 12:51:32;;;;;;;3.20;1.90;;;;;;;-145.68;35.55;72498.53;10415711;28;20713;-70
2023/09/04 12:56:33;;;;;;;2.40;2.07;;;;;;;-145.68;35.57;72476.53;10451418;28;20888;-70
2023/09/04 13:01:33;;;;;;;4.28;2.17;;;;;;;-145.68;34.20;72394.63;10448042;28;20480;-69
2023/09/04 13:06:34;;;;;;;4.40;1.98;;;;;;;-145.68;34.46;72350.66;10436814;28;20192;-70
2023/09/04 13:11:34;;;;;;;7.13;2.40;;;;;;;-145.68;34.43;72318.69;10435721;28;20227;-69
2023/09/04 13:16:35;;;;;;;4.32;1.90;;;;;;;-145.68;33.32;72212.78;10436018;28;20446;-69
2023/09/04 13:21:35;;;;;;;4.00;2.30;;;;;;;-145.68;35.32;72436.56;10436123;28;20587;-69
2023/09/04 13:26:36;;;;;;;3.30;2.20;;;;;;;-145.68;34.55;72296.69;10413553;28;20224;-69
2023/09/04 13:31:36;;;;;;;3.42;2.30;;;;;;;-145.68;34.73;72318.69;10412711;28;20216;-69
2023/09/04 13:36:36;;;;;;;3.20;2.50;;;;;;;-145.68;34.61;72284.72;10436947;28;20215;-69
2023/09/04 13:41:37;;;;;;;3.40;1.87;;;;;;;-145.68;34.78;72376.63;10436540;28;20459;-70
2023/09/04 13:46:37;;;;;;;2.90;2.08;;;;;;;-145.68;34.06;72402.59;10415144;28;20455;-70
2023/09/04 13:51:37;;;;;;;4.13;2.27;;;;;;;-145.68;35.01;72438.56;10415333;28;20219;-70
2023/09/04 13:56:38;;;;;;;2.10;1.90;;;;;;;-145.68;34.68;72320.69;10486073;28;20454;-69
2023/09/04 14:01:38;;;;;;;4.70;1.88;;;;;;;-145.68;36.48;72504.53;10518003;28;20970;-69
2023/09/04 14:06:38;;;;;;;2.73;2.00;;;;;;;-145.68;33.88;72348.66;10507817;28;20196;-69
2023/09/04 14:11:39;;;;;;;3.87;1.80;;;;;;;-145.68;35.62;72342.66;10478098;28;20489;-69
2023/09/04 14:16:39;;;;;;;3.30;2.03;;;;;;;-145.68;35.82;72398.63;10462631;28;20453;-69
2023/09/04 14:21:40;;;;;;;2.22;1.80;;;;;;;-145.68;33.73;72262.72;10473831;28;20699;-69
2023/09/04 14:26:40;;;;;;;1.63;1.50;;;;;;;-145.68;33.86;72240.75;10468911;28;20240;-70
2023/09/04 14:31:41;;;;;;;2.80;1.58;;;;;;;-145.68;31.85;71998.97;10457966;28;20318;-69
2023/09/04 14:36:41;;;;;;;4.05;1.67;;;;;;;-145.68;30.42;71817.16;10483269;28;20538;-71
2023/09/04 14:41:41;;;;;;;3.90;1.60;;;;;;;-145.68;30.03;71797.19;10470465;28;20268;-71
2023/09/04 14:46:42;;;;;;;3.27;1.67;;;;;;;-145.68;29.56;71713.28;10486549;28;20453;-71
2023/09/04 14:51:42;;;;;;;4.03;1.70;;;;;;;-145.68;29.76;71701.28;10478782;28;20494;-70
2023/09/04 14:56:43;;;;;;;2.00;1.53;;;;;;;-145.68;29.89;71737.25;10466920;22;20248;-65
2023/09/04 15:01:43;;;;;;;2.72;1.67;;;;;;;-145.68;28.44;71567.44;10408934;28;20449;-66
2023/09/04 15:06:44;;;;;;;3.28;1.83;;;;;;;-145.68;29.83;71729.25;10412642;28;20692;-66
2023/09/04 15:11:44;;;;;;;2.33;1.60;;;;;;;-145.68;30.57;71879.09;10409616;28;20223;-66
2023/09/04 15:16:45;;;;;;;2.10;1.67;;;;;;;-145.68;29.49;71673.31;10407860;28;20288;-65
2023/09/04 15:21:45;;;;;;;2.73;1.70;;;;;;;-145.68;27.55;71393.63;10406511;28;20438;-66
2023/09/04 15:26:45;;;;;;;3.10;1.97;;;;;;;-145.68;28.28;71503.50;10405873;28;20490;-66
2023/09/04 15:31:46;;;;;;;2.63;1.80;;;;;;;-145.68;29.25;71667.31;10418086;28;20489;-66
2023/09/04 15:36:46;;;;;;;2.50;1.30;;;;;;;-145.68;29.19;71627.38;10415478;28;20842;-66
2023/09/04 15:41:47;;;;;;;1.50;1.40;;;;;;;-145.68;30.93;71905.06;10407259;28;20206;-66
2023/09/04 15:46:48;;;;;;;2.20;2.00;;;;;;;-145.68;30.85;71923.06;10404604;28;20220;-66
2023/09/04 15:51:48;;;;;;;3.80;1.80;;;;;;;-145.68;31.60;71965.00;10424410;28;20480;-66
2023/09/04 15:56:49;;;;;;;2.10;1.70;;;;;;;-145.68;30.62;71825.16;10428638;28;20237;-66
2023/09/04 16:01:50;;;;;;;1.52;1.42;;;;;;;-145.68;31.01;71911.06;10485051;28;20597;-67
2023/09/04 16:06:51;;;;;;;2.72;1.73;;;;;;;-145.68;31.08;71933.03;10479401;28;20202;-67
2023/09/04 16:11:52;;;;;;;5.38;1.77;;;;;;;-145.68;31.88;72054.94;10491423;28;20301;-67
2023/09/04 16:16:52;;;;;;;7.65;1.92;;;;;;;-145.68;33.48;72168.81;10485850;28;20285;-67
2023/09/04 16:21:53;;;;;;;3.17;2.00;;;;;;;-145.68;32.31;72068.91;10491378;28;20183;-67
2023/09/04 16:26:53;;;;;;;3.80;1.70;;;;;;;-145.68;33.51;72190.81;10486673;28;20469;-68
2023/09/04 16:31:53;;;;;;;4.28;1.85;;;;;;;-145.68;33.67;72218.78;10487400;28;20523;-68
2023/09/04 16:36:54;;;;;;;3.90;1.77;;;;;;;-145.68;34.68;72370.63;10486864;28;20217;-66
2023/09/04 16:41:54;;;;;;;3.03;1.60;;;;;;;-145.68;37.15;72664.38;10487339;28;20446;-66
2023/09/04 16:46:55;;;;;;;2.20;1.90;;;;;;;-145.68;38.50;72708.34;10490678;28;20985;-67
2023/09/04 16:51:55;;;;;;;5.93;2.13;;;;;;;-145.68;39.69;72836.25;10481473;28;20633;-66
2023/09/04 16:56:56;;;;;;;5.88;1.75;;;;;;;-145.68;41.49;72966.16;10498286;28;20235;-66
2023/09/04 17:01:56;;;;;;;2.05;1.83;;;;;;;-145.68;43.32;73104.06;10456732;28;20187;-66
2023/09/04 17:06:57;;;;;;;2.95;1.80;;;;;;;-145.68;46.21;73241.97;10484809;28;20222;-67
2023/09/04 17:11:57;;;;;;;4.45;2.00;;;;;;;-145.68;47.24;73287.94;10464608;28;20871;-67
2023/09/04 17:16:58;;;;;;;7.28;2.20;;;;;;;-145.68;49.94;73395.84;10466026;28;20605;-68
2023/09/04 17:21:58;;;;;;;2.65;2.00;;;;;;;-145.68;50.26;73405.84;10476258;28;20195;-68
2023/09/04 17:26:59;;;;;;;4.32;2.17;;;;;;;-145.68;51.33;73433.84;10497302;28;20264;-68
2023/09/04 17:32:02;;;;;;;4.10;2.20;;;;;;;-145.68;52.75;73475.81;10491496;28;20211;-68
2023/09/04 17:37:03;;;;;;;3.70;2.75;;;;;;;-145.68;54.36;73529.78;10493571;28;20727;-67
2023/09/04 17:42:03;;;;;;;3.80;2.70;;;;;;;-145.68;57.77;73605.72;10494756;28;20195;-67
2023/09/04 17:47:03;;;;;;;4.53;2.60;;;;;;;-145.68;60.90;73725.66;10494055;28;20207;-67
2023/09/04 17:52:04;;;;;;;5.88;3.10;;;;;;;-145.68;64.89;73785.63;10495939;28;20218;-67
2023/09/04 17:57:06;;;;;;;3.42;3.03;;;;;;;-145.68;71.09;73847.59;10484273;28;20587;-67
2023/09/04 18:02:07;;;;;;;5.18;2.92;;;;;;;-145.68;73.11;73847.59;10495479;28;20534;-68
2023/09/04 18:07:08;;;;;;;3.28;2.97;;;;;;;-145.68;74.76;73885.56;10467909;28;20211;-68
2023/09/04 18:12:09;;;;;;;4.53;3.40;;;;;;;-145.68;79.26;73967.53;10488334;28;20717;-67
2023/09/04 18:17:09;;;;;;;8.45;4.60;;;;;;;-145.68;84.17;74003.53;10488509;28;20220;-67
2023/09/04 18:22:09;;;;;;;6.35;3.53;;;;;;;-145.68;87.83;74033.50;10478430;28;20188;-68
2023/09/04 18:27:10;;;;;;;5.95;4.80;;;;;;;-145.68;92.13;74057.50;10467955;28;20216;-68
2023/09/04 18:32:10;;;;;;;6.60;3.92;;;;;;;-145.68;96.40;74071.50;10472065;28;20218;-68
2023/09/04 18:37:10;;;;;;;8.35;5.50;;;;;;;-145.68;99.61;74087.47;10491883;28;20214;-67
2023/09/04 18:42:11;;;;;;;6.32;4.68;;;;;;;-145.68;100.00;74109.47;10487773;28;20696;-68
2023/09/04 18:47:12;;;;;;;8.10;4.72;;;;;;;-145.68;100.00;74127.47;10493648;28;20633;-68
2023/09/04 18:52:13;;;;;;;6.63;4.85;;;;;;;-145.68;100.00;74143.47;10490069;28;20323;-68
2023/09/04 18:57:16;;;;;;;11.15;4.82;;;;;;;-145.68;100.00;74153.47;10493236;28;20223;-68
2023/09/04 19:02:16;;;;;;;5.57;4.50;;;;;;;-145.68;100.00;74167.44;10490275;28;20191;-67
2023/09/04 19:07:20;;;;;;;6.47;5.07;;;;;;;-145.68;100.00;74181.44;10488647;28;20211;-67
2023/09/04 19:12:20;;;;;;;11.13;5.65;;;;;;;-145.68;100.00;74201.44;10486643;28;20754;-67
2023/09/04 19:17:20;;;;;;;8.13;5.00;;;;;;;-145.68;100.00;74225.41;10492023;28;20259;-68
2023/09/04 19:22:21;;;;;;;6.97;4.95;;;;;;;-145.68;100.00;74235.41;10486896;28;20198;-68
2023/09/04 19:27:23;;;;;;;9.02;5.85;;;;;;;-145.68;100.00;74257.41;10483746;28;20250;-68
2023/09/04 19:32:26;;;;;;;8.48;5.07;;;;;;;-145.68;100.00;74259.41;10477270;28;20306;-67
2023/09/04 19:37:27;;;;;;;7.80;5.28;;;;;;;-145.68;100.00;74255.41;10477786;28;20881;-68
2023/09/04 19:42:27;;;;;;;5.70;4.93;;;;;;;-145.68;100.00;74263.41;10491957;28;20179;-68
2023/09/04 19:47:27;;;;;;;10.05;4.70;;;;;;;-145.68;100.00;74267.41;10491791;28;20684;-67
2023/09/04 19:52:28;;;;;;;5.63;4.80;;;;;;;-145.68;100.00;74295.41;10488941;28;20242;-68
2023/09/04 19:57:28;;;;;;;6.07;4.40;;;;;;;-145.68;100.00;74285.41;10491213;28;20226;-68
2023/09/04 20:02:30;;;;;;;5.55;4.35;;;;;;;-145.68;100.00;74291.41;10485133;28;20617;-68
2023/09/04 20:07:30;;;;;;;6.80;4.88;;;;;;;-145.68;100.00;74283.41;10468532;28;20211;-68
2023/09/04 20:12:30;;;;;;;12.35;4.80;;;;;;;-145.68;100.00;74275.41;10477908;28;20649;-67
2023/09/04 20:17:31;;;;;;;8.77;5.63;;;;;;;-145.68;100.00;74257.41;10466036;28;20212;-67
2023/09/04 20:22:32;;;;;;;6.05;4.32;;;;;;;-145.68;100.00;74255.41;10472849;28;20179;-67
2023/09/04 20:27:32;;;;;;;6.53;3.67;;;;;;;-145.68;100.00;74263.41;10491073;28;20210;-67
2023/09/04 20:32:32;;;;;;;6.53;4.07;;;;;;;-145.68;100.00;74277.41;10496600;28;20218;-68
2023/09/04 20:37:35;;;;;;;5.10;3.78;;;;;;;-145.68;100.00;74257.41;10498873;28;20210;-68
2023/09/04 20:42:35;;;;;;;4.90;3.72;;;;;;;-145.68;100.00;74263.41;10495048;28;20688;-68
2023/09/04 20:47:36;;;;;;;6.88;3.92;;;;;;;-145.68;100.00;74267.41;10498505;28;20231;-68
2023/09/04 20:52:37;;;;;;;7.53;4.05;;;;;;;-145.68;100.00;74275.41;10490858;28;20716;-67
2023/09/04 20:57:37;;;;;;;8.57;4.05;;;;;;;-145.68;100.00;74285.41;10516172;22;20672;-71
2023/09/04 21:02:39;;;;;;;6.40;4.53;;;;;;;-145.68;100.00;74299.38;10463759;28;20717;-71
2023/09/04 23:25:29;;;;;;;7.65;5.30;;;;;;;-145.68;100.00;74563.28;10491190;28;20218;-70
2023/09/04 23:30:36;;;;;;;5.28;4.75;;;;;;;-145.68;100.00;74573.28;10462270;28;20674;-70
2023/09/04 23:46:15;;;;;;;6.22;5.15;;;;;;;-145.68;100.00;74583.28;10487756;28;20195;-71
2023/09/04 23:51:18;;;;;;;6.35;5.32;;;;;;;-145.68;100.00;74573.28;10460867;28;20591;-71
2023/09/04 23:56:18;;;;;;;8.32;4.75;;;;;;;-145.68;100.00;74575.28;10451448;28;20188;-71
